Weston, Wisconsin
Current Conditions -  °F | °C
As of 5:54 AM on Thursday 23 Oct 2014 (Local Time) from KAUW Reporting Station
Light Rain Light Rain  
Wind Chill: 38°   Ceiling: 3700
Heat Index: 42°   Visibility: 7mi
Dew Point: 39°   Wind: 7mph
Humidity: 89%   Direction: 150°SSE
Pressure: 30.11"   Gusts: NA
Location:  44.8809°N, 89.6196°W
Report Text: KAUW 231054Z AUTO 15006KT 7SM -RA OVC037 06/04 A3011 RMK AO2 RAB00 SLP207 P0016 T00560039
Loading
Personal Weather Stations






























Interactive Weather Map
Tropical Storm Tracking
New forecast layout! Learn more

10-Day Weather Forecast

Advertisements
Track Severe Weather on mobile